Time;durP1;ratioP1;P1;durP2;ratioP2;P2;SDS_P1;SDS_P2;PMS_P1;PMS_P2;Temp;Humidity;BMP_temperature;BMP_pressure;BME280_temperature;BME280_humidity;BME280_pressure;Samples;Min_cycle;Max_cycle;Signal;HPM_P1;HPM_P2
2023/05/18 00:01:55;;;;;;;7.57;2.78;;;7.60;90.70;;;;;;4957731;28;20169;-72
2023/05/18 00:04:22;;;;;;;9.40;3.17;;;7.60;90.40;;;;;;4957233;28;20226;-72
2023/05/18 00:06:55;;;;;;;7.65;2.75;;;7.50;90.50;;;;;;4956143;29;20197;-72
2023/05/18 00:09:23;;;;;;;9.23;3.05;;;7.50;90.60;;;;;;4955876;29;20268;-72
2023/05/18 00:11:49;;;;;;;6.20;2.60;;;7.40;90.90;;;;;;4956097;28;20215;-72
2023/05/18 00:14:15;;;;;;;12.20;3.28;;;7.40;91.00;;;;;;4955835;28;20220;-72
2023/05/18 00:16:41;;;;;;;11.05;3.13;;;7.40;91.10;;;;;;4955775;28;20221;-72
2023/05/18 00:19:06;;;;;;;7.72;3.08;;;7.40;91.30;;;;;;4956044;28;20637;-72
2023/05/18 00:21:34;;;;;;;7.50;2.90;;;7.30;91.20;;;;;;4957686;28;20209;-72
2023/05/18 00:24:00;;;;;;;10.43;2.78;;;7.30;91.20;;;;;;4955909;28;20185;-72
2023/05/18 00:26:26;;;;;;;5.32;2.38;;;7.30;91.30;;;;;;4956749;28;20661;-72
2023/05/18 00:28:51;;;;;;;8.13;3.08;;;7.30;91.30;;;;;;4955590;28;20258;-72
2023/05/18 00:31:17;;;;;;;9.80;3.42;;;7.20;91.30;;;;;;4957494;28;20278;-72
2023/05/18 00:33:44;;;;;;;9.32;3.20;;;7.10;91.50;;;;;;4955370;28;20645;-72
2023/05/18 00:36:10;;;;;;;8.18;3.10;;;7.10;91.80;;;;;;4956508;28;20193;-72
2023/05/18 00:38:36;;;;;;;7.03;2.92;;;7.00;92.30;;;;;;4956170;28;20318;-72
2023/05/18 00:41:01;;;;;;;10.55;3.10;;;7.00;92.00;;;;;;4956403;29;20272;-72
2023/05/18 00:43:27;;;;;;;10.80;2.90;;;7.00;92.00;;;;;;4955587;29;20177;-72
2023/05/18 00:45:52;;;;;;;8.00;3.05;;;7.00;92.20;;;;;;4955194;29;20213;-72
2023/05/18 00:48:18;;;;;;;9.32;3.13;;;7.00;92.50;;;;;;4955444;28;20177;-72
2023/05/18 00:50:44;;;;;;;9.48;2.80;;;7.00;92.00;;;;;;4955124;28;20185;-72
2023/05/18 00:53:09;;;;;;;13.52;2.83;;;6.90;92.20;;;;;;4955304;28;20217;-72
2023/05/18 00:55:35;;;;;;;6.88;2.65;;;6.90;92.40;;;;;;4955261;29;20574;-72
2023/05/18 00:58:01;;;;;;;8.38;3.35;;;6.80;92.40;;;;;;4955233;28;20284;-72
2023/05/18 01:19:06;;;;;;;8.07;3.40;;;6.00;94.60;;;;;;5204203;23;20269;-71
2023/05/18 01:22:27;;;;;;;7.60;3.30;;;5.90;94.90;;;;;;5012563;28;20199;-71
2023/05/18 01:26:01;;;;;;;12.35;3.53;;;5.90;95.10;;;;;;4981255;28;20253;-71
2023/05/18 01:29:13;;;;;;;;;;;;;;;;;;;;;
2023/05/18 01:32:33;;;;;;;;;;;;;;;;;;;;;
2023/05/18 01:37:51;;;;;;;9.10;3.13;;;5.60;95.30;;;;;;5027274;22;20232;-83
2023/05/18 01:40:17;;;;;;;7.40;3.07;;;5.30;95.70;;;;;;4975063;28;20192;-83
2023/05/18 01:42:47;;;;;;;7.07;3.25;;;5.30;96.20;;;;;;4975445;28;20189;-83
2023/05/18 01:45:28;;;;;;;7.57;3.30;;;5.40;96.40;;;;;;4975348;28;20172;-84
2023/05/18 01:47:58;;;;;;;8.30;3.27;;;5.40;96.40;;;;;;4975712;28;20293;-83
2023/05/18 01:50:36;;;;;;;9.75;3.40;;;5.40;96.40;;;;;;4975670;28;20183;-83
2023/05/18 01:53:18;;;;;;;8.10;3.27;;;5.40;96.30;;;;;;4975238;28;20201;-83
2023/05/18 01:55:46;;;;;;;11.13;3.80;;;5.20;96.40;;;;;;4974921;28;20201;-83
2023/05/18 01:58:13;;;;;;;8.17;3.77;;;5.10;96.80;;;;;;4974976;28;20216;-83
2023/05/18 02:00:38;;;;;;;9.13;3.43;;;5.00;97.20;;;;;;4975203;28;20184;-83
2023/05/18 02:03:04;;;;;;;8.00;3.43;;;5.00;97.20;;;;;;4974990;28;20181;-83
2023/05/18 02:05:30;;;;;;;10.07;3.60;;;5.00;97.20;;;;;;4975367;28;20176;-83
2023/05/18 02:07:56;;;;;;;10.20;3.53;;;5.20;97.20;;;;;;4976897;28;20196;-82
2023/05/18 02:10:22;;;;;;;12.63;3.47;;;5.00;97.20;;;;;;4976119;28;20208;-82
2023/05/18 02:12:51;;;;;;;7.00;3.20;;;5.00;97.70;;;;;;4976223;28;20196;-84
2023/05/18 02:15:17;;;;;;;7.60;3.50;;;4.90;97.40;;;;;;4975035;28;20199;-83
2023/05/18 02:17:42;;;;;;;6.53;3.57;;;4.90;97.70;;;;;;4974893;28;20181;-83
2023/05/18 02:20:08;;;;;;;7.13;3.37;;;4.80;97.80;;;;;;4975436;28;20253;-83
2023/05/18 02:22:34;;;;;;;11.60;3.70;;;4.80;98.10;;;;;;4974733;28;20267;-83
2023/05/18 02:25:01;;;;;;;4.70;3.30;;;4.80;98.20;;;;;;4974861;28;20227;-83
2023/05/18 02:27:27;;;;;;;12.27;3.63;;;4.80;98.10;;;;;;4974777;28;20281;-83
2023/05/18 02:29:53;;;;;;;7.37;3.03;;;4.80;98.10;;;;;;4975276;28;20193;-83
2023/05/18 02:32:19;;;;;;;9.93;3.43;;;4.90;98.30;;;;;;4974825;28;20211;-83
2023/05/18 02:34:45;;;;;;;6.40;2.97;;;5.00;98.20;;;;;;4975077;28;20223;-83
2023/05/18 02:37:12;;;;;;;6.97;3.20;;;5.00;97.70;;;;;;4974953;28;20217;-83
2023/05/18 02:39:38;;;;;;;9.13;3.30;;;5.00;97.40;;;;;;4976241;28;20196;-84
2023/05/18 02:42:04;;;;;;;5.23;3.00;;;4.90;97.50;;;;;;4973793;28;20224;-84
2023/05/18 02:44:30;;;;;;;7.70;3.10;;;4.90;97.50;;;;;;4973978;28;20285;-85
2023/05/18 02:46:56;;;;;;;8.13;3.07;;;4.80;97.70;;;;;;4973060;28;20291;-85
2023/05/18 02:49:22;;;;;;;7.53;3.33;;;4.80;97.80;;;;;;4972923;28;20267;-85
2023/05/18 02:51:47;;;;;;;3.27;2.77;;;4.70;98.10;;;;;;4973018;28;20248;-85
2023/05/18 02:54:13;;;;;;;7.77;3.30;;;4.80;98.20;;;;;;4973010;28;20184;-85
2023/05/18 02:56:40;;;;;;;6.93;2.90;;;4.80;98.10;;;;;;4972891;28;20247;-85
2023/05/18 02:59:06;;;;;;;5.33;2.90;;;4.70;98.20;;;;;;4973370;28;20217;-85
2023/05/18 03:01:33;;;;;;;6.03;3.23;;;4.60;98.40;;;;;;4974752;28;20177;-85
2023/05/18 03:03:59;;;;;;;4.00;2.80;;;4.70;98.70;;;;;;4976780;28;20173;-85
2023/05/18 03:06:25;;;;;;;6.43;2.93;;;4.60;98.40;;;;;;4976509;28;20201;-85
2023/05/18 03:08:57;;;;;;;5.83;3.33;;;4.60;98.50;;;;;;4976710;28;20267;-85
2023/05/18 03:11:23;;;;;;;6.83;3.20;;;4.60;98.60;;;;;;4977110;28;20217;-85
2023/05/18 03:13:49;;;;;;;7.00;3.20;;;4.50;98.80;;;;;;4977808;28;20188;-85
2023/05/18 03:16:15;;;;;;;7.87;2.97;;;4.40;99.10;;;;;;4976112;28;20666;-85
2023/05/18 03:18:40;;;;;;;9.80;3.23;;;4.40;99.30;;;;;;4977316;28;20211;-85
2023/05/18 03:21:06;;;;;;;6.60;2.80;;;4.50;99.10;;;;;;4977456;28;20184;-85
2023/05/18 03:23:35;;;;;;;5.63;3.37;;;4.40;99.00;;;;;;4977620;28;20231;-85
2023/05/18 03:26:02;;;;;;;4.60;2.70;;;4.30;99.40;;;;;;4976312;28;20201;-85
2023/05/18 03:28:29;;;;;;;7.77;3.20;;;4.30;99.60;;;;;;4976326;28;20188;-85
2023/05/18 03:30:55;;;;;;;8.10;3.00;;;4.40;99.70;;;;;;4976891;28;20184;-85
2023/05/18 03:33:20;;;;;;;5.57;2.80;;;4.30;99.90;;;;;;4975806;28;20709;-85
2023/05/18 03:35:47;;;;;;;7.17;2.67;;;4.30;99.90;;;;;;4976008;28;20227;-85
2023/05/18 03:38:13;;;;;;;7.03;3.00;;;4.40;99.90;;;;;;4976127;28;20181;-85
2023/05/18 03:40:38;;;;;;;6.07;2.70;;;4.40;99.90;;;;;;4976976;28;20183;-85
2023/05/18 03:43:04;;;;;;;8.73;3.43;;;4.40;99.90;;;;;;4975920;28;20181;-85
2023/05/18 03:45:30;;;;;;;6.47;3.37;;;4.50;99.90;;;;;;4977229;28;20227;-85
2023/05/18 03:47:55;;;;;;;8.20;3.27;;;4.60;99.90;;;;;;4976048;28;20184;-85
2023/05/18 03:50:21;;;;;;;8.77;4.47;;;4.60;99.90;;;;;;4976047;28;20184;-85
2023/05/18 03:52:47;;;;;;;7.30;4.63;;;4.70;99.90;;;;;;4975628;28;20248;-85
2023/05/18 03:55:12;;;;;;;12.97;7.27;;;4.80;99.50;;;;;;4976280;28;20316;-85
2023/05/18 03:57:38;;;;;;;17.87;10.77;;;4.80;99.40;;;;;;4977058;28;20204;-85
2023/05/18 04:00:10;;;;;;;16.13;8.83;;;5.00;99.30;;;;;;4975614;28;20181;-85
2023/05/18 04:02:36;;;;;;;11.17;6.10;;;4.90;98.90;;;;;;4977175;28;20196;-85
2023/05/18 04:05:02;;;;;;;7.93;4.90;;;4.90;99.10;;;;;;4975455;28;20277;-85
2023/05/18 04:07:27;;;;;;;7.00;3.50;;;4.90;98.90;;;;;;4975910;28;20276;-85
2023/05/18 04:09:54;;;;;;;7.00;3.37;;;5.00;99.10;;;;;;4975768;28;20184;-85
2023/05/18 04:12:20;;;;;;;5.43;3.00;;;4.90;98.90;;;;;;4975051;28;20231;-85
2023/05/18 04:14:49;;;;;;;9.83;3.70;;;4.90;99.50;;;;;;4976166;28;20529;-85
2023/05/18 04:17:16;;;;;;;6.60;3.20;;;5.00;99.60;;;;;;4975097;28;20201;-85
2023/05/18 04:19:41;;;;;;;9.17;3.20;;;4.90;99.70;;;;;;4975100;28;20181;-85
2023/05/18 04:22:07;;;;;;;8.33;3.23;;;4.90;99.80;;;;;;4975368;28;20188;-85
2023/05/18 04:24:34;;;;;;;6.43;3.10;;;4.90;99.90;;;;;;4975499;28;20196;-85
2023/05/18 04:27:00;;;;;;;5.27;2.83;;;4.90;99.90;;;;;;4975338;28;20228;-86
2023/05/18 04:29:29;;;;;;;7.80;3.00;;;5.10;99.80;;;;;;4975248;28;20185;-85
2023/05/18 04:31:59;;;;;;;7.37;3.57;;;5.20;99.90;;;;;;4975080;28;20215;-86
2023/05/18 04:34:28;;;;;;;6.63;3.03;;;5.40;99.60;;;;;;4975862;28;20177;-86
2023/05/18 04:36:55;;;;;;;8.70;3.90;;;5.20;99.60;;;;;;4974900;28;20221;-86
2023/05/18 04:39:24;;;;;;;7.53;4.20;;;5.30;99.80;;;;;;4974660;28;20184;-86
2023/05/18 04:41:56;;;;;;;5.40;3.78;;;5.60;99.60;;;;;;4975654;28;20207;-85
2023/05/18 04:44:24;;;;;;;9.68;5.28;;;5.90;99.20;;;;;;4974649;28;20189;-86
2023/05/18 04:46:51;;;;;;;11.13;4.90;;;6.10;98.60;;;;;;4974992;28;20275;-86
2023/05/18 04:49:20;;;;;;;13.45;5.88;;;6.40;98.20;;;;;;4974962;28;20268;-86
2023/05/18 04:51:49;;;;;;;7.22;3.70;;;6.50;98.10;;;;;;4974715;28;20181;-86
2023/05/18 04:54:15;;;;;;;6.10;3.40;;;6.70;97.90;;;;;;4974620;28;20201;-85
2023/05/18 04:56:41;;;;;;;7.30;2.85;;;6.90;97.70;;;;;;4974417;28;20193;-86
2023/05/18 04:59:10;;;;;;;6.28;3.13;;;6.90;97.30;;;;;;4975248;28;20216;-86
2023/05/18 05:01:35;;;;;;;10.13;3.72;;;7.10;97.30;;;;;;4974994;28;20173;-86
2023/05/18 05:04:01;;;;;;;6.25;3.60;;;7.30;97.10;;;;;;4975305;28;20223;-86
2023/05/18 05:06:27;;;;;;;6.78;3.67;;;7.50;96.60;;;;;;4974502;28;20208;-86
2023/05/18 05:08:52;;;;;;;6.22;3.33;;;7.60;96.40;;;;;;4975077;28;20698;-86
2023/05/18 05:11:18;;;;;;;9.23;3.03;;;7.80;96.20;;;;;;4974311;28;20181;-85
2023/05/18 05:13:43;;;;;;;10.90;3.20;;;8.00;96.00;;;;;;4974475;28;20204;-86
2023/05/18 05:16:09;;;;;;;9.40;2.83;;;8.10;95.70;;;;;;4974380;28;20197;-86
2023/05/18 05:18:35;;;;;;;7.88;2.88;;;8.30;95.80;;;;;;4974475;28;20177;-85
2023/05/18 05:21:00;;;;;;;5.75;3.10;;;8.40;95.80;;;;;;4974181;28;20277;-85
2023/05/18 05:23:26;;;;;;;5.90;2.80;;;8.60;95.90;;;;;;4973714;28;20185;-85
2023/05/18 05:25:51;;;;;;;15.98;4.25;;;8.70;95.00;;;;;;4973904;28;20299;-85
2023/05/18 05:28:17;;;;;;;10.43;5.60;;;8.80;94.50;;;;;;4974400;28;20203;-85
2023/05/18 05:30:43;;;;;;;8.63;3.17;;;8.90;94.40;;;;;;4974432;28;20196;-86
2023/05/18 05:33:08;;;;;;;9.02;2.60;;;9.10;93.70;;;;;;4974918;28;20279;-86
2023/05/18 05:35:34;;;;;;;10.00;2.72;;;9.20;93.60;;;;;;4973731;28;20292;-86
2023/05/18 05:37:59;;;;;;;6.93;2.60;;;9.40;93.30;;;;;;4974357;28;20235;-85
2023/05/18 05:40:25;;;;;;;7.80;3.35;;;9.50;93.20;;;;;;4974200;28;20180;-85
2023/05/18 05:42:51;;;;;;;7.72;2.95;;;9.50;92.90;;;;;;4973832;28;20187;-85
2023/05/18 05:45:18;;;;;;;9.35;3.00;;;9.80;92.20;;;;;;4974472;28;20212;-86
2023/05/18 05:47:43;;;;;;;7.95;3.10;;;10.10;91.20;;;;;;4974899;28;20220;-85
2023/05/18 05:50:09;;;;;;;10.52;2.63;;;10.30;91.00;;;;;;4974027;28;20188;-86
2023/05/18 05:52:35;;;;;;;5.53;2.63;;;10.60;91.00;;;;;;4974083;28;20284;-86
2023/05/18 05:55:00;;;;;;;10.35;2.75;;;10.80;90.30;;;;;;4973628;28;20267;-85
2023/05/18 05:57:26;;;;;;;5.68;2.55;;;10.90;88.80;;;;;;4973772;28;20193;-85
2023/05/18 05:59:51;;;;;;;7.28;2.63;;;10.80;88.40;;;;;;4973650;28;20204;-85
2023/05/18 06:02:17;;;;;;;7.25;2.80;;;10.90;88.20;;;;;;4974083;28;20184;-85
2023/05/18 06:04:43;;;;;;;7.25;2.75;;;11.00;88.30;;;;;;4974043;28;20263;-85
2023/05/18 06:07:08;;;;;;;8.25;2.92;;;11.00;88.50;;;;;;4973447;28;20710;-85
2023/05/18 06:09:34;;;;;;;7.93;2.70;;;11.20;87.30;;;;;;4975608;28;20235;-85
2023/05/18 06:11:59;;;;;;;5.97;2.45;;;11.40;87.80;;;;;;4973418;28;20678;-86
2023/05/18 06:14:25;;;;;;;7.70;2.90;;;11.60;88.20;;;;;;4973562;28;20173;-86
2023/05/18 06:16:51;;;;;;;6.55;2.58;;;11.80;86.40;;;;;;4974041;28;20197;-86
2023/05/18 06:19:16;;;;;;;9.02;2.90;;;12.00;85.20;;;;;;4974240;28;20180;-86
2023/05/18 06:21:42;;;;;;;11.45;3.08;;;12.00;85.60;;;;;;4973251;28;20177;-86
2023/05/18 06:24:08;;;;;;;7.95;2.92;;;12.00;85.90;;;;;;4973527;28;20276;-86
2023/05/18 06:26:33;;;;;;;9.00;2.92;;;11.70;86.40;;;;;;4974996;28;20205;-86
2023/05/18 06:28:59;;;;;;;7.00;3.10;;;12.00;86.90;;;;;;4973163;28;20173;-86
2023/05/18 06:31:25;;;;;;;8.70;3.28;;;12.10;85.60;;;;;;4973951;28;20185;-86
2023/05/18 06:33:51;;;;;;;5.95;2.67;;;12.50;85.40;;;;;;4974162;28;20216;-85
2023/05/18 06:36:16;;;;;;;9.63;3.53;;;13.10;83.10;;;;;;4975686;28;20209;-86
2023/05/18 06:38:42;;;;;;;8.45;2.55;;;13.80;81.40;;;;;;4972501;28;20212;-86
2023/05/18 06:41:08;;;;;;;5.68;2.50;;;14.00;78.80;;;;;;4957806;29;20165;-86
2023/05/18 06:43:33;;;;;;;9.65;2.58;;;14.50;77.30;;;;;;4957862;29;20583;-86
2023/05/18 06:45:59;;;;;;;10.75;3.47;;;14.40;76.50;;;;;;4957304;29;20216;-86
2023/05/18 06:48:26;;;;;;;9.35;3.80;;;14.50;76.70;;;;;;4957989;28;20189;-86
2023/05/18 06:50:53;;;;;;;11.20;4.28;;;14.40;76.50;;;;;;4957710;29;20174;-86
2023/05/18 06:53:19;;;;;;;10.52;3.38;;;14.20;77.80;;;;;;4957633;28;20220;-86
2023/05/18 06:55:49;;;;;;;9.77;3.05;;;14.00;75.00;;;;;;4957700;28;20257;-86
2023/05/18 06:58:15;;;;;;;8.07;2.83;;;13.90;74.50;;;;;;4964993;28;20176;-85
2023/05/18 07:00:40;;;;;;;13.40;2.75;;;13.70;73.80;;;;;;4976861;28;20188;-83
2023/05/18 07:03:07;;;;;;;8.25;3.17;;;13.80;73.40;;;;;;4976952;28;20181;-83
2023/05/18 07:05:32;;;;;;;6.57;2.53;;;13.80;72.70;;;;;;4970013;28;20205;-83
2023/05/18 07:07:58;;;;;;;6.85;2.92;;;13.80;72.50;;;;;;4965412;28;20272;-83
2023/05/18 07:10:24;;;;;;;9.02;2.45;;;14.00;73.30;;;;;;4976129;28;20204;-83
2023/05/18 07:12:50;;;;;;;12.48;3.70;;;14.00;71.90;;;;;;4976294;28;20204;-83
2023/05/18 07:15:15;;;;;;;12.40;3.15;;;13.80;72.30;;;;;;4964812;28;20230;-83
2023/05/18 07:17:41;;;;;;;13.00;3.15;;;13.10;72.50;;;;;;4966553;28;20272;-83
2023/05/18 07:20:07;;;;;;;13.15;4.40;;;13.00;74.40;;;;;;4962936;28;20178;-83
2023/05/18 07:22:33;;;;;;;7.68;3.15;;;13.20;73.80;;;;;;4956906;29;20197;-84
2023/05/18 07:24:59;;;;;;;9.60;2.90;;;13.00;72.80;;;;;;4956829;29;20218;-85
2023/05/18 07:27:26;;;;;;;8.18;2.97;;;13.20;74.70;;;;;;4956684;29;20237;-84
2023/05/18 07:29:52;;;;;;;7.82;3.30;;;13.60;72.00;;;;;;4956928;29;20178;-84
2023/05/18 07:32:17;;;;;;;10.35;3.13;;;13.70;72.20;;;;;;4960461;28;20198;-84
2023/05/18 07:34:45;;;;;;;7.93;3.30;;;13.80;72.50;;;;;;4958460;28;20660;-84
2023/05/18 07:37:11;;;;;;;10.05;3.35;;;13.90;70.70;;;;;;4956569;29;20646;-84
2023/05/18 07:39:37;;;;;;;6.88;2.97;;;13.80;70.90;;;;;;4956304;29;20204;-84
2023/05/18 07:42:03;;;;;;;9.45;2.95;;;13.70;71.30;;;;;;4957143;29;20213;-84
2023/05/18 07:44:29;;;;;;;12.70;3.20;;;13.70;72.10;;;;;;4956847;29;20217;-84
2023/05/18 07:46:55;;;;;;;8.43;2.63;;;13.90;71.80;;;;;;4957207;28;20570;-84
2023/05/18 07:49:22;;;;;;;5.80;2.75;;;14.10;69.90;;;;;;4956931;29;20599;-84
2023/05/18 07:51:48;;;;;;;10.70;2.97;;;14.10;71.50;;;;;;4958568;28;20186;-83
2023/05/18 07:54:14;;;;;;;11.02;2.60;;;14.30;72.50;;;;;;4958289;29;20188;-83
2023/05/18 07:56:39;;;;;;;7.18;2.75;;;14.30;70.70;;;;;;4974054;28;20193;-83
2023/05/18 07:59:05;;;;;;;10.15;3.13;;;14.10;70.10;;;;;;4979468;28;20185;-85
2023/05/18 08:01:31;;;;;;;9.10;2.70;;;14.00;69.70;;;;;;4976029;28;20184;-85
2023/05/18 08:03:57;;;;;;;9.52;3.00;;;13.70;71.70;;;;;;4975508;28;20177;-85
2023/05/18 08:06:23;;;;;;;7.65;2.83;;;13.60;72.00;;;;;;4975645;28;20209;-85
2023/05/18 08:08:48;;;;;;;14.45;3.20;;;13.50;71.30;;;;;;4975778;28;20212;-84
2023/05/18 08:11:14;;;;;;;8.60;2.75;;;13.90;75.20;;;;;;4976786;28;20263;-85
2023/05/18 08:13:39;;;;;;;10.55;2.80;;;14.40;71.50;;;;;;4975605;28;20212;-85
2023/05/18 08:16:05;;;;;;;11.13;2.60;;;14.80;71.90;;;;;;4975023;28;20284;-85
2023/05/18 08:18:31;;;;;;;9.65;3.05;;;15.00;68.50;;;;;;4976048;28;20177;-85
2023/05/18 08:20:57;;;;;;;9.85;3.10;;;15.30;67.30;;;;;;4975212;28;20169;-85
2023/05/18 08:23:25;;;;;;;8.80;2.92;;;15.30;65.90;;;;;;4975501;28;20169;-84
2023/05/18 08:25:51;;;;;;;9.15;2.85;;;15.20;64.50;;;;;;4976082;28;20675;-84
2023/05/18 08:28:34;;;;;;;9.45;2.80;;;15.30;64.30;;;;;;4977186;28;20224;-85
2023/05/18 08:31:00;;;;;;;8.75;2.78;;;15.40;64.70;;;;;;4976563;28;20545;-85
2023/05/18 08:33:26;;;;;;;8.48;3.00;;;15.00;63.80;;;;;;4975571;28;20299;-84
2023/05/18 08:35:52;;;;;;;7.72;2.53;;;14.90;64.90;;;;;;4975302;28;20280;-84
2023/05/18 08:38:18;;;;;;;9.00;2.75;;;15.20;63.30;;;;;;4975088;28;20176;-83
2023/05/18 08:41:11;;;;;;;9.23;2.80;;;15.40;64.60;;;;;;4978598;28;20180;-84
2023/05/18 08:43:55;;;;;;;10.18;3.20;;;15.70;65.10;;;;;;4977314;28;20181;-84
2023/05/18 08:46:33;;;;;;;6.88;2.83;;;15.90;63.30;;;;;;4976426;28;20202;-84
2023/05/18 08:49:01;;;;;;;7.45;2.92;;;16.10;61.70;;;;;;4975028;28;20275;-85
2023/05/18 08:51:32;;;;;;;9.75;3.05;;;15.40;63.10;;;;;;4975203;28;20184;-85
2023/05/18 08:53:58;;;;;;;10.32;2.75;;;15.70;63.90;;;;;;4975758;28;20320;-85
2023/05/18 08:56:25;;;;;;;8.45;2.67;;;15.90;63.20;;;;;;4974670;28;20201;-85
2023/05/18 08:58:55;;;;;;;8.75;2.35;;;16.40;62.30;;;;;;4974020;28;20185;-85
2023/05/18 09:01:26;;;;;;;7.30;2.53;;;16.70;61.30;;;;;;4975383;28;20212;-85
2023/05/18 09:03:52;;;;;;;7.03;3.25;;;16.70;59.90;;;;;;4974685;28;20181;-85
2023/05/18 09:06:20;;;;;;;7.88;3.00;;;17.00;60.00;;;;;;4975186;28;20204;-85
2023/05/18 09:09:03;;;;;;;7.15;2.83;;;17.10;59.60;;;;;;4975313;28;20192;-86
2023/05/18 09:11:36;;;;;;;6.30;2.72;;;16.70;58.30;;;;;;4975214;28;20188;-86
2023/05/18 09:14:03;;;;;;;8.27;2.95;;;16.70;59.10;;;;;;4975352;28;20242;-86
2023/05/18 09:16:30;;;;;;;10.32;3.00;;;16.30;58.80;;;;;;4975794;28;20196;-84
2023/05/18 09:18:55;;;;;;;9.63;3.10;;;16.40;60.80;;;;;;4974649;28;20286;-84
2023/05/18 09:21:21;;;;;;;7.30;2.70;;;16.30;58.00;;;;;;4974466;28;20293;-84
2023/05/18 09:23:47;;;;;;;11.70;3.15;;;15.80;60.20;;;;;;4974337;28;20244;-84
2023/05/18 09:26:13;;;;;;;7.05;2.95;;;15.80;58.90;;;;;;4974620;28;20207;-84
2023/05/18 09:28:41;;;;;;;6.93;2.90;;;15.90;60.10;;;;;;4974676;28;20176;-84
2023/05/18 09:31:17;;;;;;;10.95;3.28;;;16.30;58.80;;;;;;4974478;28;20631;-84
2023/05/18 09:33:45;;;;;;;7.78;3.10;;;16.30;57.30;;;;;;4975764;28;20207;-84
2023/05/18 09:36:11;;;;;;;7.32;2.92;;;16.20;57.00;;;;;;4974860;28;20777;-85
2023/05/18 09:38:45;;;;;;;8.38;2.97;;;16.30;57.20;;;;;;4974616;28;20177;-85
2023/05/18 09:41:15;;;;;;;11.45;3.10;;;16.30;57.50;;;;;;4975955;28;20168;-85
2023/05/18 09:43:47;;;;;;;8.30;2.90;;;16.40;58.00;;;;;;4974665;28;20192;-85
2023/05/18 09:46:13;;;;;;;6.25;2.70;;;16.80;57.90;;;;;;4963475;28;20232;-86
2023/05/18 09:48:50;;;;;;;6.10;2.80;;;16.80;57.40;;;;;;4973663;28;20217;-85
2023/05/18 09:51:17;;;;;;;6.20;2.70;;;16.50;56.40;;;;;;4973852;28;20200;-86
2023/05/18 09:53:56;;;;;;;8.35;2.80;;;16.20;57.90;;;;;;4973892;28;20208;-85
2023/05/18 09:56:22;;;;;;;7.45;2.80;;;16.50;58.40;;;;;;4974412;28;20287;-85
2023/05/18 09:58:48;;;;;;;10.45;2.80;;;16.00;57.70;;;;;;4974176;28;20231;-85
2023/05/18 10:01:14;;;;;;;6.25;2.88;;;15.90;57.90;;;;;;4976558;28;20188;-85
2023/05/18 10:03:40;;;;;;;8.93;2.72;;;16.40;57.80;;;;;;4975608;28;20181;-85
2023/05/18 10:06:08;;;;;;;7.82;2.72;;;16.70;56.90;;;;;;4973902;28;20625;-85
2023/05/18 10:08:35;;;;;;;9.00;3.00;;;16.00;56.40;;;;;;4974479;28;20275;-85
2023/05/18 10:11:01;;;;;;;6.63;2.70;;;15.90;57.50;;;;;;4975980;28;20271;-86
2023/05/18 10:13:30;;;;;;;7.75;3.00;;;16.10;58.10;;;;;;4978908;28;20303;-86
2023/05/18 10:16:01;;;;;;;10.60;3.17;;;16.10;58.50;;;;;;4977058;28;20204;-85
2023/05/18 10:18:32;;;;;;;9.70;3.03;;;16.40;57.30;;;;;;4976220;28;20268;-85
2023/05/18 10:20:59;;;;;;;8.80;3.08;;;16.60;57.70;;;;;;4975892;28;20200;-86
2023/05/18 10:23:29;;;;;;;8.32;2.65;;;16.60;56.50;;;;;;4975893;28;20185;-85
2023/05/18 10:25:56;;;;;;;8.40;3.15;;;16.70;55.90;;;;;;4975525;28;20205;-85
2023/05/18 10:28:37;;;;;;;8.50;2.65;;;16.90;56.80;;;;;;4976494;28;20185;-85
2023/05/18 10:31:04;;;;;;;11.15;3.05;;;16.80;55.90;;;;;;4978204;28;20248;-85
2023/05/18 10:33:30;;;;;;;5.35;2.40;;;17.10;55.30;;;;;;4977141;28;20730;-85
2023/05/18 10:35:56;;;;;;;5.38;2.63;;;17.30;54.90;;;;;;4977048;28;20218;-85
2023/05/18 10:38:26;;;;;;;8.50;2.45;;;17.50;55.20;;;;;;4978213;28;20169;-84
2023/05/18 10:40:56;;;;;;;7.55;2.95;;;17.30;53.90;;;;;;4978187;28;20603;-85
2023/05/18 10:43:27;;;;;;;8.27;3.10;;;17.30;53.00;;;;;;4981763;28;20241;-85
2023/05/18 10:45:57;;;;;;;8.40;2.65;;;17.10;55.20;;;;;;4977219;28;20205;-83
2023/05/18 10:48:24;;;;;;;10.65;3.30;;;17.00;56.00;;;;;;4976895;28;20176;-83
2023/05/18 10:50:52;;;;;;;7.28;3.33;;;17.00;57.60;;;;;;4976707;28;20181;-83
2023/05/18 10:53:19;;;;;;;9.15;2.83;;;17.10;55.50;;;;;;4977162;28;20255;-83
2023/05/18 10:55:47;;;;;;;8.32;2.95;;;17.00;56.50;;;;;;4976486;28;20251;-83
2023/05/18 10:58:15;;;;;;;6.57;3.00;;;16.80;55.00;;;;;;4977460;28;20173;-83
2023/05/18 11:00:45;;;;;;;5.93;2.75;;;16.60;54.50;;;;;;4977099;28;20271;-83
2023/05/18 11:03:13;;;;;;;10.98;3.20;;;16.70;55.30;;;;;;4977410;28;20185;-82
2023/05/18 11:05:39;;;;;;;9.65;2.53;;;16.60;56.00;;;;;;4977642;28;20576;-83
2023/05/18 11:08:05;;;;;;;6.78;3.05;;;16.90;57.10;;;;;;4977941;28;20271;-83
2023/05/18 11:10:42;;;;;;;6.30;3.08;;;17.10;55.10;;;;;;4977788;28;20181;-83
2023/05/18 11:13:10;;;;;;;7.22;2.63;;;16.80;54.90;;;;;;4977332;28;20203;-82
2023/05/18 11:15:58;;;;;;;8.05;3.00;;;16.60;57.20;;;;;;4976645;28;20233;-83
2023/05/18 11:18:44;;;;;;;7.03;3.15;;;16.80;55.50;;;;;;4978043;28;20189;-83
2023/05/18 11:21:23;;;;;;;4.70;2.65;;;16.30;55.70;;;;;;4977860;28;20608;-83
2023/05/18 11:24:16;;;;;;;9.98;3.03;;;16.50;56.10;;;;;;4977049;28;20185;-83
2023/05/18 11:26:53;;;;;;;8.73;2.67;;;16.30;56.20;;;;;;4977121;28;20252;-83
2023/05/18 11:29:21;;;;;;;9.13;2.63;;;16.50;56.20;;;;;;4978170;28;20176;-83
2023/05/18 11:31:49;;;;;;;6.45;2.60;;;16.90;55.30;;;;;;4977095;28;20188;-83
2023/05/18 11:34:48;;;;;;;7.13;2.47;;;17.20;55.70;;;;;;4977966;28;20184;-83
2023/05/18 11:37:37;;;;;;;5.68;2.50;;;17.40;54.10;;;;;;4976695;28;20216;-83
2023/05/18 11:40:04;;;;;;;8.32;2.90;;;17.80;54.30;;;;;;4977289;28;20267;-83
2023/05/18 11:42:34;;;;;;;6.30;2.67;;;17.90;54.10;;;;;;4977418;28;20542;-83
2023/05/18 11:45:10;;;;;;;5.63;2.50;;;18.10;53.60;;;;;;4977728;28;20690;-83
2023/05/18 11:47:40;;;;;;;5.28;2.70;;;18.50;53.30;;;;;;4976769;28;20197;-83
2023/05/18 11:50:07;;;;;;;6.80;2.42;;;18.90;52.00;;;;;;4977662;28;20184;-83
2023/05/18 11:52:47;;;;;;;7.75;2.60;;;18.40;51.50;;;;;;4976732;28;20220;-82
2023/05/18 11:55:17;;;;;;;4.65;2.50;;;17.80;51.60;;;;;;4976545;28;20173;-83
2023/05/18 11:57:46;;;;;;;6.63;2.40;;;17.70;53.10;;;;;;4977294;28;20208;-83
2023/05/18 12:00:14;;;;;;;6.13;2.72;;;17.50;53.00;;;;;;4976954;28;20176;-83
2023/05/18 12:02:45;;;;;;;8.13;2.60;;;17.20;54.80;;;;;;4977524;28;20181;-83
2023/05/18 12:05:11;;;;;;;6.63;2.55;;;17.60;54.40;;;;;;4976505;28;20217;-83
2023/05/18 12:07:39;;;;;;;8.50;2.90;;;17.30;54.70;;;;;;4976679;28;20205;-82
2023/05/18 12:10:09;;;;;;;7.90;2.70;;;17.20;53.90;;;;;;4976221;28;20189;-82
2023/05/18 12:12:35;;;;;;;10.05;3.53;;;16.90;53.50;;;;;;4977243;28;20204;-81
2023/05/18 12:15:04;;;;;;;6.15;2.70;;;16.80;55.30;;;;;;4977292;28;20181;-82
2023/05/18 12:17:45;;;;;;;6.32;2.58;;;16.90;54.80;;;;;;4976506;28;20200;-82
2023/05/18 12:20:15;;;;;;;8.68;2.90;;;16.80;54.50;;;;;;4977794;28;20169;-82
2023/05/18 12:22:49;;;;;;;6.63;2.75;;;16.70;54.70;;;;;;4977898;28;20187;-81
2023/05/18 12:25:15;;;;;;;7.18;2.60;;;17.00;54.80;;;;;;4977404;28;20189;-81
2023/05/18 12:27:43;;;;;;;5.45;2.65;;;17.40;54.70;;;;;;4977424;28;20181;-81
2023/05/18 12:30:12;;;;;;;7.75;2.83;;;17.60;54.60;;;;;;4976149;28;20181;-82
2023/05/18 12:32:42;;;;;;;8.63;2.60;;;17.70;53.00;;;;;;4977462;28;20566;-82
2023/05/18 12:35:08;;;;;;;5.40;2.58;;;17.50;53.90;;;;;;4978247;28;20180;-81
2023/05/18 12:37:43;;;;;;;8.98;3.08;;;16.80;54.10;;;;;;4977447;28;20244;-81
2023/05/18 12:40:11;;;;;;;7.57;2.70;;;16.70;55.10;;;;;;4978177;28;20535;-82
2023/05/18 12:42:37;;;;;;;7.45;2.53;;;16.70;54.90;;;;;;4976314;28;20195;-81
2023/05/18 12:45:03;;;;;;;7.00;2.47;;;17.10;54.90;;;;;;4975131;28;20216;-82
2023/05/18 12:47:32;;;;;;;4.78;2.63;;;17.40;54.30;;;;;;4975057;28;20618;-82
2023/05/18 12:50:02;;;;;;;6.50;2.50;;;17.90;53.20;;;;;;4975393;28;20185;-82
2023/05/18 12:52:28;;;;;;;5.25;2.42;;;18.20;52.40;;;;;;4974867;28;20223;-82
2023/05/18 12:54:58;;;;;;;4.63;2.50;;;18.20;53.00;;;;;;4975245;28;20177;-82
2023/05/18 12:57:25;;;;;;;5.97;2.40;;;18.10;52.90;;;;;;4976257;28;20717;-83
2023/05/18 12:59:54;;;;;;;5.70;2.60;;;18.00;53.50;;;;;;4976685;28;20176;-82
2023/05/18 13:02:28;;;;;;;5.47;2.53;;;18.00;53.20;;;;;;4976404;28;20181;-82
2023/05/18 13:05:06;;;;;;;5.80;2.50;;;18.00;53.00;;;;;;4975985;28;20181;-83
2023/05/18 13:07:34;;;;;;;7.22;2.78;;;17.30;54.00;;;;;;4974761;28;20316;-83
2023/05/18 13:10:04;;;;;;;6.15;2.67;;;17.20;54.80;;;;;;4975213;28;20181;-83
2023/05/18 13:12:50;;;;;;;6.90;2.63;;;17.20;53.20;;;;;;4976649;28;20207;-82
2023/05/18 13:15:20;;;;;;;5.22;2.60;;;17.00;53.60;;;;;;4977582;28;20177;-82
2023/05/18 13:17:59;;;;;;;7.45;2.53;;;17.00;53.70;;;;;;4975110;28;20256;-82
2023/05/18 13:20:38;;;;;;;8.60;2.63;;;17.10;53.20;;;;;;4975091;28;20165;-82